KCTY/CTY METAR and TAF weather

Enter ICAO airport designator
Station Type Date Time Source
KCTY METAR 2019/04/19 22:35 UTC NOAA

KCTY 192235Z AUTO 25021G27KT 10SM BKN034 BKN041 20/12 A2973 RMK AO2 T02000124


Station Type Date Time Source
KCTY Decoded METAR 2019/04/19 22:35 UTC NOAA

CROSS CITY AIRPORT, FL, United States (KCTY) 29-38N 083-06W 12M
Apr 19, 2019 - 06:35 PM EDT / 2019.04.19 2235 UTC
Wind: from the WSW (250 degrees) at 24 MPH (21 KT) gusting to 31 MPH (27 KT):0
Visibility: 10 mile(s):0
Sky conditions: mostly cloudy
Temperature: 68.0 F (20.0 C)
Dew Point: 54.3 F (12.4 C)
Relative Humidity: 61%
Pressure (altimeter): 29.73 in. Hg (1006 hPa)
ob: KCTY 192235Z AUTO 25021G27KT 10SM BKN034 BKN041 20/12 A2973 RMK AO2 T02000124
cycle: 22

Station Type Date Time Source
KCTY TAF UTC NOAA

Error!

Example: see airport list